createdAt,value
2023-01-03T00:02:10.539Z,17.35
2023-01-03T00:04:37.140Z,17.80
2023-01-03T00:07:03.638Z,17.80
2023-01-03T00:09:30.036Z,19.02
2023-01-03T00:12:14.903Z,18.90
2023-01-03T00:14:43.328Z,18.45
2023-01-03T00:17:10.777Z,19.83
2023-01-03T00:19:40.077Z,19.42
2023-01-03T00:22:06.803Z,21.38
2023-01-03T00:24:33.223Z,21.90
2023-01-03T00:26:59.719Z,21.20
2023-01-03T00:29:26.240Z,22.42
2023-01-03T00:31:52.674Z,22.58
2023-01-03T00:34:19.052Z,22.33
2023-01-03T00:36:45.426Z,23.60
2023-01-03T00:39:12.288Z,22.33
2023-01-03T00:41:39.038Z,21.52
2023-01-03T00:44:05.702Z,20.25
2023-01-03T00:46:32.285Z,21.50
2023-01-03T00:48:58.695Z,20.70
2023-01-03T00:51:28.264Z,22.13
2023-01-03T00:53:56.749Z,22.55
2023-01-03T00:56:26.502Z,21.05
2023-01-03T00:58:53.219Z,22.27
2023-01-03T01:01:27.770Z,21.58
2023-01-03T01:04:00.454Z,23.48
2023-01-03T01:06:30.686Z,21.02
2023-01-03T01:08:58.720Z,20.92
2023-01-03T01:11:26.438Z,20.77
2023-01-03T01:13:53.389Z,19.90
2023-01-03T01:16:23.301Z,20.73
2023-01-03T01:18:53.547Z,20.35
2023-01-03T01:21:22.782Z,19.88
2023-01-03T01:23:49.582Z,18.95
2023-01-03T01:26:18.344Z,16.33
2023-01-03T01:28:44.843Z,15.93
2023-01-03T01:31:14.631Z,14.32
2023-01-03T01:33:41.042Z,15.35
2023-01-03T01:36:09.728Z,12.50
2023-01-03T01:38:36.320Z,12.90
2023-01-03T01:41:03.174Z,11.60
2023-01-03T01:43:48.326Z,11.90
2023-01-03T01:46:27.098Z,11.13
2023-01-03T01:49:04.147Z,10.70
2023-01-03T01:51:33.855Z,10.65
2023-01-03T01:54:02.484Z,9.95
2023-01-03T01:56:33.607Z,10.40
2023-01-03T01:59:00.231Z,10.07
2023-01-03T02:01:27.369Z,9.45
2023-01-03T02:04:01.623Z,10.57
2023-01-03T02:06:30.230Z,9.02
2023-01-03T02:08:56.618Z,8.93
2023-01-03T02:11:35.122Z,10.45
2023-01-03T02:14:30.600Z,9.82
2023-01-03T02:17:26.824Z,10.02
2023-01-03T02:20:18.141Z,9.98
2023-01-03T02:22:59.597Z,8.35
2023-01-03T02:25:51.029Z,8.97
2023-01-03T02:28:38.212Z,8.93
2023-01-03T02:31:12.444Z,9.73
2023-01-03T02:34:10.668Z,11.65
2023-01-03T02:37:10.525Z,11.45
2023-01-03T02:40:06.740Z,9.65
2023-01-03T02:42:55.919Z,9.70
2023-01-03T02:45:30.810Z,11.25
2023-01-03T02:48:17.389Z,9.93
2023-01-03T02:50:48.928Z,10.57
2023-01-03T02:53:38.552Z,9.68
2023-01-03T02:56:07.910Z,9.85
2023-01-03T02:58:36.165Z,10.43
2023-01-03T03:01:03.397Z,10.80
2023-01-03T03:03:33.718Z,10.13
2023-01-03T03:06:29.643Z,11.20
2023-01-03T03:08:56.066Z,10.43
2023-01-03T03:11:41.088Z,11.32
2023-01-03T03:14:14.424Z,10.75
2023-01-03T03:16:49.932Z,10.93
2023-01-03T03:19:43.144Z,11.10
2023-01-03T03:22:51.797Z,9.95
2023-01-03T03:25:22.344Z,11.88
2023-01-03T03:28:10.044Z,10.82
2023-01-03T03:30:38.745Z,12.57
2023-01-03T03:33:06.508Z,11.27
2023-01-03T03:35:47.912Z,12.77
2023-01-03T03:38:17.935Z,11.00
2023-01-03T03:41:10.986Z,11.15
2023-01-03T03:44:02.550Z,12.80
2023-01-03T03:46:34.012Z,11.32
2023-01-03T03:49:19.038Z,12.32
2023-01-03T03:51:46.996Z,12.50
2023-01-03T03:54:17.456Z,12.38
2023-01-03T03:56:47.504Z,12.00
2023-01-03T03:59:15.802Z,12.90
2023-01-03T04:01:42.742Z,14.57
2023-01-03T04:04:14.841Z,12.73
2023-01-03T04:06:47.761Z,13.63
2023-01-03T04:09:14.958Z,13.60
2023-01-03T04:11:41.354Z,12.55
2023-01-03T04:14:07.808Z,13.00
2023-01-03T04:16:34.423Z,13.88
2023-01-03T04:19:00.867Z,12.98
2023-01-03T04:21:27.329Z,12.77
2023-01-03T04:23:53.723Z,13.88
2023-01-03T04:26:20.172Z,14.57
2023-01-03T04:28:46.565Z,14.77
2023-01-03T04:31:13.181Z,14.90
2023-01-03T04:33:40.662Z,15.10
2023-01-03T04:36:07.409Z,15.40
2023-01-03T04:38:33.795Z,15.65
2023-01-03T04:41:07.525Z,14.85
2023-01-03T04:43:52.523Z,15.40
2023-01-03T04:46:19.393Z,15.02
2023-01-03T04:48:45.979Z,15.63
2023-01-03T04:51:12.519Z,17.42
2023-01-03T04:53:38.877Z,16.90
2023-01-03T04:56:05.658Z,19.02
2023-01-03T04:58:32.139Z,18.38
2023-01-03T05:01:03.039Z,16.88
2023-01-03T05:03:30.255Z,18.15
2023-01-03T05:06:04.511Z,19.45
2023-01-03T05:08:31.100Z,18.73
2023-01-03T05:10:57.475Z,19.25
2023-01-03T05:13:23.857Z,18.77
2023-01-03T05:15:50.256Z,20.35
2023-01-03T05:18:16.684Z,19.00
2023-01-03T05:21:02.781Z,20.80
2023-01-03T05:23:47.819Z,20.52
2023-01-03T05:26:16.526Z,22.77
2023-01-03T05:28:45.472Z,21.30
2023-01-03T05:31:12.406Z,20.92
2023-01-03T05:33:39.847Z,21.67
2023-01-03T05:36:07.856Z,21.52
2023-01-03T05:38:34.257Z,22.95
2023-01-03T05:41:00.717Z,21.73
2023-01-03T05:43:27.164Z,21.95
2023-01-03T05:45:53.679Z,23.02
2023-01-03T05:48:21.284Z,22.33
2023-01-03T05:50:49.840Z,21.40
2023-01-03T05:53:16.486Z,21.42
2023-01-03T05:55:42.923Z,19.70
2023-01-03T05:58:11.022Z,20.95
2023-01-03T06:00:37.422Z,19.70
2023-01-03T06:03:03.887Z,19.83
2023-01-03T06:05:30.314Z,19.60
2023-01-03T06:07:59.883Z,18.73
2023-01-03T06:10:26.255Z,18.48
2023-01-03T06:12:52.771Z,20.17
2023-01-03T06:15:20.273Z,20.10
2023-01-03T06:17:57.497Z,19.70
2023-01-03T06:20:25.467Z,18.00
2023-01-03T06:22:52.518Z,17.52
2023-01-03T06:25:18.950Z,18.38
2023-01-03T06:27:45.414Z,17.30
2023-01-03T06:30:12.182Z,18.33
2023-01-03T06:32:38.646Z,16.90
2023-01-03T06:35:05.351Z,18.05
2023-01-03T06:37:31.749Z,18.42
2023-01-03T06:39:58.223Z,16.85
2023-01-03T06:42:39.771Z,19.35
2023-01-03T06:45:25.168Z,18.73
2023-01-03T06:48:09.995Z,16.65
2023-01-03T06:50:57.698Z,15.75
2023-01-03T06:53:24.420Z,17.30
2023-01-03T06:55:56.802Z,20.25
2023-01-03T06:58:23.883Z,21.83
2023-01-03T07:00:50.371Z,21.27
2023-01-03T07:03:16.753Z,20.15
2023-01-03T07:05:43.119Z,19.92
2023-01-03T07:08:09.568Z,19.50
2023-01-03T07:10:35.995Z,19.08
2023-01-03T07:13:21.357Z,19.83
2023-01-03T07:15:47.929Z,20.38
2023-01-03T07:18:14.449Z,18.13
2023-01-03T07:20:44.956Z,21.10
2023-01-03T07:23:12.426Z,17.60
2023-01-03T07:25:41.305Z,18.77
2023-01-03T07:28:11.925Z,18.73
2023-01-03T07:30:44.515Z,20.05
2023-01-03T07:33:12.441Z,19.70
2023-01-03T07:35:38.817Z,20.63
2023-01-03T07:38:06.218Z,18.65
2023-01-03T07:40:32.802Z,19.92
2023-01-03T07:43:17.937Z,19.98
2023-01-03T07:45:45.279Z,19.27
2023-01-03T07:48:12.219Z,19.42
2023-01-03T07:50:39.216Z,17.73
2023-01-03T07:53:07.005Z,17.95
2023-01-03T07:55:35.447Z,17.80
2023-01-03T07:58:02.602Z,16.90
2023-01-03T08:00:29.350Z,17.17
2023-01-03T08:02:56.376Z,17.75
2023-01-03T08:05:23.511Z,17.05
2023-01-03T08:07:50.820Z,16.67
2023-01-03T08:10:36.767Z,16.38
2023-01-03T08:13:18.778Z,17.02
2023-01-03T08:15:46.295Z,15.63
2023-01-03T08:18:12.851Z,17.00
2023-01-03T08:20:39.281Z,16.17
2023-01-03T08:23:05.825Z,14.98
2023-01-03T08:25:32.204Z,13.57
2023-01-03T08:27:59.535Z,14.25
2023-01-03T08:30:26.259Z,14.25
2023-01-03T08:32:53.646Z,13.05
2023-01-03T08:35:20.301Z,14.68
2023-01-03T08:37:47.846Z,13.68
2023-01-03T08:40:16.314Z,12.98
2023-01-03T08:42:43.028Z,14.43
2023-01-03T08:45:11.755Z,12.35
2023-01-03T08:47:38.301Z,10.85
2023-01-03T08:50:05.128Z,11.80
2023-01-03T08:52:35.053Z,12.13
2023-01-03T08:55:02.189Z,12.52
2023-01-03T08:57:28.598Z,12.05
2023-01-03T08:59:55.086Z,12.30
2023-01-03T09:02:21.772Z,12.30
2023-01-03T09:04:48.360Z,11.40
2023-01-03T09:07:14.812Z,11.48
2023-01-03T09:09:41.291Z,10.07
2023-01-03T09:12:07.715Z,9.27
2023-01-03T09:14:34.132Z,8.07
2023-01-03T09:17:00.584Z,6.90
2023-01-03T09:19:27.090Z,7.18
2023-01-03T09:21:53.463Z,5.75
2023-01-03T09:24:19.842Z,5.57
2023-01-03T09:26:53.995Z,5.15
2023-01-03T09:29:21.063Z,5.22
2023-01-03T09:31:47.500Z,4.75
2023-01-03T09:34:13.946Z,4.88
2023-01-03T09:36:40.576Z,4.28
2023-01-03T09:39:07.158Z,4.68
2023-01-03T09:41:33.796Z,3.70
2023-01-03T09:44:03.651Z,4.07
2023-01-03T09:46:32.407Z,3.70
2023-01-03T09:48:59.212Z,3.20
2023-01-03T09:51:53.833Z,3.70
2023-01-03T09:54:49.004Z,3.20
2023-01-03T09:57:44.644Z,3.30
2023-01-03T10:00:33.775Z,4.68
2023-01-03T10:03:27.181Z,3.70
2023-01-03T10:06:21.462Z,4.30
2023-01-03T10:08:55.178Z,3.20
2023-01-03T10:11:32.571Z,3.15
2023-01-03T10:14:12.760Z,3.45
2023-01-03T10:17:05.087Z,2.92
2023-01-03T10:19:43.539Z,3.13
2023-01-03T10:22:13.084Z,3.00
2023-01-03T10:24:47.947Z,3.05
2023-01-03T10:27:16.350Z,2.88
2023-01-03T10:29:43.894Z,3.05
2023-01-03T10:32:13.274Z,2.95
2023-01-03T10:34:39.786Z,2.67
2023-01-03T10:37:19.347Z,3.47
2023-01-03T10:39:45.776Z,2.35
2023-01-03T10:42:21.272Z,2.95
2023-01-03T10:44:59.808Z,2.83
2023-01-03T10:47:27.074Z,2.80
2023-01-03T10:50:00.550Z,3.97
2023-01-03T10:52:45.344Z,2.47
2023-01-03T10:55:17.263Z,3.00
2023-01-03T10:57:58.814Z,3.38
2023-01-03T11:00:29.827Z,3.43
2023-01-03T11:03:12.034Z,2.53
2023-01-03T11:08:14.236Z,2.67
2023-01-03T11:10:58.041Z,2.38
2023-01-03T11:13:25.663Z,2.60
2023-01-03T11:15:57.203Z,2.50
2023-01-03T11:18:24.084Z,2.08
2023-01-03T11:21:15.204Z,2.60
2023-01-03T11:24:37.046Z,2.90
2023-01-03T11:27:24.630Z,2.40
2023-01-03T11:30:12.769Z,2.20
2023-01-03T11:32:51.543Z,2.55
2023-01-03T11:35:30.136Z,2.42
2023-01-03T11:37:59.484Z,2.28
2023-01-03T11:40:38.435Z,2.28
2023-01-03T11:43:17.107Z,2.60
2023-01-03T11:46:08.934Z,2.58
2023-01-03T11:48:54.588Z,2.50
2023-01-03T11:51:36.554Z,2.63
2023-01-03T11:54:40.048Z,2.80
2023-01-03T11:57:16.829Z,2.50
2023-01-03T12:00:03.435Z,2.38
2023-01-03T12:03:07.379Z,2.67
2023-01-03T12:05:46.583Z,2.58
2023-01-03T12:08:42.487Z,2.70
2023-01-03T12:11:46.326Z,2.53
2023-01-03T12:14:24.669Z,2.35
2023-01-03T12:17:07.698Z,3.17
2023-01-03T12:19:59.422Z,2.60
2023-01-03T12:22:38.033Z,3.13
2023-01-03T12:25:19.677Z,2.22
2023-01-03T12:27:54.509Z,2.08
2023-01-03T12:30:35.413Z,2.40
2023-01-03T12:33:09.769Z,2.55
2023-01-03T12:35:57.917Z,2.30
2023-01-03T12:38:29.664Z,2.90
2023-01-03T12:41:12.967Z,2.53
2023-01-03T12:43:46.817Z,2.63
2023-01-03T12:46:19.523Z,2.47
2023-01-03T12:48:58.103Z,2.50
2023-01-03T12:51:24.971Z,2.75
2023-01-03T12:54:06.491Z,2.78
2023-01-03T12:56:54.792Z,2.70
2023-01-03T12:59:35.070Z,2.60
2023-01-03T13:02:17.392Z,3.67
2023-01-03T13:04:44.553Z,2.92
2023-01-03T13:07:18.506Z,3.55
2023-01-03T13:09:49.915Z,2.90
2023-01-03T13:12:20.085Z,3.50
2023-01-03T13:14:55.313Z,3.13
2023-01-03T13:17:25.497Z,3.33
2023-01-03T13:19:53.630Z,3.05
2023-01-03T13:22:21.547Z,3.10
2023-01-03T13:24:52.225Z,2.47
2023-01-03T13:27:22.621Z,2.50
2023-01-03T13:29:48.983Z,2.40
2023-01-03T13:32:21.710Z,2.90
2023-01-03T13:34:54.121Z,2.35
2023-01-03T13:37:22.401Z,2.40
2023-01-03T13:39:51.775Z,1.90
2023-01-03T13:42:26.495Z,1.90
2023-01-03T13:44:56.006Z,2.00
2023-01-03T13:47:30.885Z,1.50
2023-01-03T13:49:57.268Z,1.70
2023-01-03T13:52:35.982Z,1.90
2023-01-03T13:55:02.539Z,1.73
2023-01-03T13:57:32.383Z,1.73
2023-01-03T13:59:59.741Z,1.65
2023-01-03T14:02:55.806Z,1.52
2023-01-03T14:05:46.570Z,1.58
2023-01-03T14:08:56.114Z,1.42
2023-01-03T14:11:44.281Z,1.52
2023-01-03T14:14:12.979Z,1.75
2023-01-03T14:16:53.726Z,1.38
2023-01-03T14:19:35.855Z,1.80
2023-01-03T14:22:28.872Z,1.50
2023-01-03T14:24:58.167Z,2.25
2023-01-03T14:27:28.434Z,1.63
2023-01-03T14:29:55.565Z,1.30
2023-01-03T14:32:33.692Z,1.48
2023-01-03T14:35:00.667Z,2.13
2023-01-03T14:37:27.585Z,1.23
2023-01-03T14:39:57.647Z,1.20
2023-01-03T14:42:24.677Z,1.27
2023-01-03T14:45:00.868Z,1.80
2023-01-03T14:47:36.054Z,1.40
2023-01-03T14:50:04.000Z,2.15
2023-01-03T14:52:31.308Z,1.60
2023-01-03T14:55:05.217Z,1.30
2023-01-03T14:57:31.938Z,1.30
2023-01-03T14:59:59.976Z,1.30
2023-01-03T15:02:30.283Z,1.30
2023-01-03T15:04:58.085Z,1.17
2023-01-03T15:07:38.777Z,1.40
2023-01-03T15:10:07.622Z,1.27
2023-01-03T15:12:36.392Z,1.27
2023-01-03T15:15:18.772Z,1.50
2023-01-03T15:20:16.973Z,1.38
2023-01-03T15:22:43.416Z,1.50
2023-01-03T15:25:24.118Z,1.73
2023-01-03T15:27:50.786Z,1.25
2023-01-03T15:30:19.602Z,1.58
2023-01-03T15:33:01.865Z,1.40
2023-01-03T15:35:40.140Z,1.35
2023-01-03T15:38:31.748Z,1.33
2023-01-03T15:40:59.569Z,1.40
2023-01-03T15:43:32.305Z,1.58
2023-01-03T15:46:04.483Z,1.48
2023-01-03T15:51:01.696Z,1.50
2023-01-03T15:53:33.407Z,1.55
2023-01-03T15:56:04.743Z,1.42
2023-01-03T15:58:32.592Z,1.20
2023-01-03T16:01:00.019Z,1.75
2023-01-03T16:03:29.864Z,1.77
2023-01-03T16:05:56.464Z,2.25
2023-01-03T16:08:34.698Z,1.50
2023-01-03T16:11:03.385Z,1.50
2023-01-03T16:13:34.690Z,3.10
2023-01-03T16:16:01.468Z,1.40
2023-01-03T16:18:37.712Z,1.58
2023-01-03T16:21:04.631Z,1.80
2023-01-03T16:23:32.821Z,1.73
2023-01-03T16:25:59.493Z,1.67
2023-01-03T16:28:26.257Z,2.17
2023-01-03T16:31:02.205Z,1.83
2023-01-03T16:33:34.307Z,1.70
2023-01-03T16:36:00.870Z,1.80
2023-01-03T16:38:28.670Z,1.58
2023-01-03T16:40:56.461Z,1.60
2023-01-03T16:43:26.977Z,1.73
2023-01-03T16:45:56.718Z,1.90
2023-01-03T16:48:24.163Z,1.65
2023-01-03T16:50:52.911Z,1.60
2023-01-03T16:53:24.813Z,2.30
2023-01-03T16:55:54.528Z,2.22
2023-01-03T16:58:20.891Z,1.73
2023-01-03T17:00:47.292Z,1.98
2023-01-03T17:03:13.839Z,1.50
2023-01-03T17:05:40.384Z,1.88
2023-01-03T17:08:15.932Z,1.88
2023-01-03T17:10:46.747Z,1.77
2023-01-03T17:13:25.132Z,1.83
2023-01-03T17:15:51.663Z,2.35
2023-01-03T17:18:23.778Z,2.33
2023-01-03T17:20:56.607Z,2.13
2023-01-03T17:23:23.349Z,2.03
2023-01-03T17:25:49.783Z,1.95
2023-01-03T17:28:16.455Z,2.17
2023-01-03T17:30:43.623Z,2.30
2023-01-03T17:33:17.115Z,2.50
2023-01-03T17:35:45.182Z,2.50
2023-01-03T17:38:25.778Z,2.92
2023-01-03T17:40:55.061Z,2.53
2023-01-03T17:43:23.657Z,2.40
2023-01-03T17:46:13.990Z,2.60
2023-01-03T17:49:02.811Z,2.40
2023-01-03T17:51:29.201Z,2.55
2023-01-03T17:53:55.686Z,2.47
2023-01-03T17:56:22.109Z,2.95
2023-01-03T17:58:55.583Z,2.47
2023-01-03T18:01:22.605Z,2.05
2023-01-03T18:03:50.013Z,3.03
2023-01-03T18:06:19.987Z,3.08
2023-01-03T18:08:47.528Z,3.33
2023-01-03T18:11:19.683Z,2.67
2023-01-03T18:16:18.130Z,3.30
2023-01-03T18:18:44.998Z,3.33
2023-01-03T18:21:23.728Z,3.10
2023-01-03T18:23:59.534Z,3.42
2023-01-03T18:26:32.473Z,3.53
2023-01-03T18:28:58.979Z,2.67
2023-01-03T18:31:25.433Z,2.60
2023-01-03T18:33:51.813Z,2.60
2023-01-03T18:36:29.693Z,2.17
2023-01-03T18:39:22.210Z,2.47
2023-01-03T18:44:25.844Z,2.58
2023-01-03T18:46:52.329Z,3.78
2023-01-03T18:49:19.072Z,2.63
2023-01-03T18:51:47.049Z,2.35
2023-01-03T18:54:18.460Z,3.80
2023-01-03T18:56:45.017Z,2.28
2023-01-03T18:59:20.607Z,2.38
2023-01-03T19:01:47.229Z,2.50
2023-01-03T19:04:13.765Z,2.13
2023-01-03T19:06:42.875Z,2.45
2023-01-03T19:09:11.147Z,2.80
2023-01-03T19:11:37.882Z,2.92
2023-01-03T19:14:04.493Z,2.88
2023-01-03T19:16:33.389Z,2.47
2023-01-03T19:19:00.279Z,2.50
2023-01-03T19:21:31.544Z,2.30
2023-01-03T19:24:22.390Z,2.40
2023-01-03T19:26:54.919Z,2.30
2023-01-03T19:29:23.795Z,2.10
2023-01-03T19:31:52.423Z,2.70
2023-01-03T19:34:24.436Z,2.25
2023-01-03T19:36:51.402Z,1.65
2023-01-03T19:39:23.963Z,1.83
2023-01-03T19:42:11.254Z,2.00
2023-01-03T19:44:37.617Z,2.13
2023-01-03T19:47:04.309Z,2.30
2023-01-03T19:49:30.823Z,2.30
2023-01-03T19:51:57.810Z,2.10
2023-01-03T19:54:24.601Z,1.75
2023-01-03T19:56:55.304Z,2.10
2023-01-03T19:59:26.189Z,1.85
2023-01-03T20:02:23.492Z,2.47
2023-01-03T20:04:39.478Z,2.40
2023-01-03T20:07:13.680Z,2.00
2023-01-03T20:09:40.192Z,2.10
2023-01-03T20:12:09.910Z,2.63
2023-01-03T20:14:36.284Z,2.28
2023-01-03T20:17:02.762Z,1.92
2023-01-03T20:19:30.498Z,1.80
2023-01-03T20:21:56.861Z,2.33
2023-01-03T20:24:25.037Z,1.48
2023-01-03T20:26:52.219Z,1.75
2023-01-03T20:29:18.651Z,2.70
2023-01-03T20:31:45.236Z,2.58
2023-01-03T20:34:11.795Z,1.85
2023-01-03T20:36:42.782Z,2.35
2023-01-03T20:39:25.363Z,2.65
2023-01-03T20:41:51.741Z,2.30
2023-01-03T20:44:18.178Z,1.92
2023-01-03T20:46:44.622Z,2.88
2023-01-03T20:49:21.939Z,2.42
2023-01-03T20:51:48.492Z,1.90
2023-01-03T20:54:14.904Z,2.00
2023-01-03T20:56:41.354Z,2.20
2023-01-03T20:59:07.819Z,2.25
2023-01-03T21:01:35.530Z,1.98
2023-01-03T21:04:02.087Z,2.03
2023-01-03T21:06:29.414Z,1.67
2023-01-03T21:08:56.778Z,2.20
2023-01-03T21:11:28.333Z,1.98
2023-01-03T21:13:55.924Z,1.80
2023-01-03T21:16:28.285Z,1.73
2023-01-03T21:18:54.967Z,1.83
2023-01-03T21:21:23.160Z,1.77
2023-01-03T21:23:49.544Z,1.80
2023-01-03T21:26:16.012Z,1.85
2023-01-03T21:28:42.380Z,2.47
2023-01-03T21:31:15.116Z,1.98
2023-01-03T21:33:41.502Z,2.20
2023-01-03T21:36:14.196Z,2.83
2023-01-03T21:38:44.084Z,1.50
2023-01-03T21:41:24.614Z,1.77
2023-01-03T21:43:54.770Z,4.43
2023-01-03T21:46:21.345Z,1.90
2023-01-03T21:48:47.844Z,2.10
2023-01-03T21:51:17.477Z,1.88
2023-01-03T21:53:51.732Z,2.20
2023-01-03T21:56:20.352Z,2.05
2023-01-03T21:58:46.736Z,2.30
2023-01-03T22:01:16.315Z,2.20
2023-01-03T22:04:01.572Z,2.35
2023-01-03T22:06:28.026Z,2.30
2023-01-03T22:08:54.673Z,2.58
2023-01-03T22:11:21.603Z,2.10
2023-01-03T22:13:49.226Z,2.42
2023-01-03T22:16:16.635Z,1.70
2023-01-03T22:18:43.017Z,2.03
2023-01-03T22:21:10.862Z,2.05
2023-01-03T22:23:38.423Z,1.77
2023-01-03T22:26:07.358Z,2.08
2023-01-03T22:28:35.508Z,2.22
2023-01-03T22:31:02.149Z,2.97
2023-01-03T22:33:28.532Z,2.28
2023-01-03T22:35:54.917Z,2.10
2023-01-03T22:38:21.271Z,1.70
2023-01-03T22:40:47.671Z,1.98
2023-01-03T22:43:14.473Z,1.90
2023-01-03T22:45:40.895Z,2.83
2023-01-03T22:48:07.293Z,1.90
2023-01-03T22:50:33.669Z,2.20
2023-01-03T22:53:00.030Z,1.77
2023-01-03T22:55:31.782Z,2.40
2023-01-03T22:57:58.548Z,2.38
2023-01-03T23:00:24.947Z,2.08
2023-01-03T23:02:51.426Z,2.05
2023-01-03T23:05:17.923Z,2.08
2023-01-03T23:07:45.441Z,1.92
2023-01-03T23:10:12.947Z,2.63
2023-01-03T23:12:57.763Z,2.70
2023-01-03T23:15:25.254Z,2.53
2023-01-03T23:17:57.637Z,2.35
2023-01-03T23:20:30.339Z,1.50
2023-01-03T23:22:59.923Z,2.03
2023-01-03T23:25:26.575Z,1.90
2023-01-03T23:27:52.942Z,1.58
2023-01-03T23:30:19.421Z,1.75
2023-01-03T23:32:45.827Z,3.95
2023-01-03T23:35:12.254Z,5.63
2023-01-03T23:37:39.498Z,3.03
2023-01-03T23:40:06.550Z,2.08
2023-01-03T23:42:32.964Z,3.08
2023-01-03T23:44:59.312Z,2.17
2023-01-03T23:47:25.679Z,1.63
2023-01-03T23:49:52.062Z,1.60
2023-01-03T23:52:18.471Z,2.30
2023-01-03T23:54:44.842Z,1.90
2023-01-03T23:57:11.249Z,2.40
2023-01-03T23:59:37.617Z,3.50
